Flight Track Log - Related Links

Times and Time Zones

All times are in EDT time to prevent confusion due to time zone crossing. See the SWA2428 flight status page for this flight to view local times or setup timezone preferences in your user account.

Time Position Orientation Groundspeed Altitude Reporting Facility
EDT Latitude Longitude Course Direction KTS MPH feet Rate Location/Type
Sat 10:59:32 AM 34.0594 -117.6264 268° West 157 181 2,200  Level Los Angeles Center
Sat 11:00:34 AM 34.0564 -117.7150 268° West 235 270 5,300 2,341 Climbing Los Angeles Center
Sat 11:01:35 AM 34.0850 -117.7967 293° West 263 303 7,000 2,683 Climbing Los Angeles Center
Sat 11:02:37 AM 34.1342 -117.8681 310° West 276 318 10,800 3,268 Climbing Los Angeles Center
Sat 11:03:38 AM 34.1883 -117.9464 310° West 301 346 13,700 3,220 Climbing Los Angeles Center
Sat 11:04:40 AM 34.2489 -118.0361 309° West 341 392 17,400 3,463 Climbing Los Angeles Center
Sat 11:05:41 AM 34.3114 -118.1283 309° West 355 409 20,800 3,073 Climbing Los Angeles Center
Sat 11:06:43 AM 34.3764 -118.2261 309° West 369 425 23,700 3,000 Climbing Los Angeles Center
Sat 11:07:45 AM 34.4583 -118.3478 309° West 387 445 27,000 2,780 Climbing Los Angeles Center
Sat 11:08:46 AM 34.5292 -118.4506 310° West 398 458 29,400 2,341 Climbing Los Angeles Center
Sat 11:09:48 AM 34.6250 -118.5239 328° Northwest 411 473 31,800 2,146 Climbing Los Angeles Center
Sat 11:10:49 AM 34.7247 -118.5889 332° Northwest 408 470 33,800 1,951 Climbing Los Angeles Center
Sat 11:11:51 AM 34.8247 -118.6556 331° Northwest 410 472 35,800 2,032 Climbing Los Angeles Center
Sat 11:12:53 AM 34.9314 -118.7258 332° Northwest 406 467 38,000 1,073 Climbing Los Angeles Center
Sat 11:13:54 AM 35.0286 -118.7908 331° Northwest 400 460 38,000  Level Los Angeles Center
Sat 11:14:56 AM 35.1253 -118.8556 331° Northwest 398 458 38,000 387 Level Los Angeles Center
Sat 11:15:58 AM 35.2244 -118.9214 332° Northwest 405 466 38,800 976 Climbing Los Angeles Center
Sat 11:16:59 AM 35.3422 -118.9983 332° Northwest 403 464 40,000 585 Climbing Los Angeles Center
Sat 11:18:01 AM 35.4392 -119.0636 331° Northwest 400 460 40,000  Level Los Angeles Center
Sat 11:19:03 AM 35.5386 -119.1236 334° Northwest 399 459 40,000  Level Los Angeles Center
Sat 11:20:04 AM 35.6425 -119.1767 337° Northwest 402 463 40,000  Level Los Angeles Center
Sat 11:20:39 AM 35.7000 -119.2058 338° Northwest 403 464 40,000  Level Oakland Center
Sat 11:21:40 AM 35.8047 -119.2575 338° Northwest 405 466 40,000  Level Oakland Center
Sat 11:22:40 AM 35.9092 -119.3128 337° Northwest 408 470 40,000  Level Oakland Center
Sat 11:23:41 AM 36.0036 -119.3775 331° Northwest 397 457 40,000  Level Oakland Center
Sat 11:24:42 AM 36.1008 -119.4414 332° Northwest 395 455 40,000  Level Oakland Center
Sat 11:25:43 AM 36.1964 -119.5072 331° Northwest 395 455 40,000  Level Oakland Center
Sat 11:26:44 AM 36.2925 -119.5717 332° Northwest 397 457 40,000 -148 Level Oakland Center
Sat 11:27:45 AM 36.4078 -119.6494 332° Northwest 396 456 39,700 -639 Descending Oakland Center
Sat 11:28:46 AM 36.5028 -119.7142 331° Northwest 392 451 38,700 -934 Descending Oakland Center
Sat 11:29:47 AM 36.5975 -119.7806 331° Northwest 392 451 37,800 -934 Descending Oakland Center
Sat 11:30:48 AM 36.6931 -119.8464 331° Northwest 394 453 36,800 -934 Descending Oakland Center
Sat 11:31:49 AM 36.7886 -119.9114 331° Northwest 392 451 35,900 -934 Descending Oakland Center
Sat 11:32:50 AM 36.8833 -119.9769 331° Northwest 390 449 34,900 -934 Descending Oakland Center
Sat 11:33:51 AM 36.9794 -120.0436 331° Northwest 396 456 34,000 -1,024 Descending Oakland Center
Sat 11:34:53 AM 37.0856 -120.1178 331° Northwest 397 457 32,800 -1,707 Descending Oakland Center
Sat 11:35:54 AM 37.1733 -120.1781 331° Northwest 391 450 30,500 -2,311 Descending Oakland Center
Sat 11:36:55 AM 37.2639 -120.2425 330° Northwest 379 436 28,100 -2,361 Descending Oakland Center
Sat 11:37:56 AM 37.3561 -120.3078 331° Northwest 380 437 25,700 -2,066 Descending Oakland Center
Sat 11:38:57 AM 37.4447 -120.3675 332° Northwest 368 423 23,900 -1,667 Descending Oakland Center
Sat 11:39:26 AM 37.5000 -120.4167 325° Northwest 357 411 23,200 -1,146 Descending Northern Cal TRACON
Sat 11:40:26 AM 37.5667 -120.5000 315° West 352 405 22,200 -950 Descending Northern Cal TRACON
Sat 11:41:26 AM 37.6500 -120.5667 328° Northwest 346 398 21,300 -957 Descending Northern Cal TRACON
Sat 11:42:00 AM 37.6892 -120.6125 317° Northwest 348 400 20,700 -1,100 Descending Oakland Center
Sat 11:42:26 AM 37.7167 -120.6500 313° West 343 395 20,200 -1,037 Descending Northern Cal TRACON
Sat 11:43:21 AM 37.7833 -120.7167 322° Northwest 339 390 19,300 -991 Descending Northern Cal TRACON
Sat 11:44:21 AM 37.8667 -120.7833 328° Northwest 336 387 18,300 -932 Descending Northern Cal TRACON
Sat 11:45:04 AM 37.9100 -120.8342 317° Northwest 337 388 17,700 -808 Descending Oakland Center
Sat 11:46:05 AM 37.9811 -120.9061 321° Northwest 330 380 16,900 -885 Descending Oakland Center
Sat 11:47:06 AM 38.0514 -120.9781 321° Northwest 326 375 15,900 -984 Descending Oakland Center
Sat 11:48:07 AM 38.1147 -121.0581 315° West 321 369 14,900 -984 Descending Oakland Center
Sat 11:49:08 AM 38.1711 -121.1442 310° West 317 365 13,900 -1,415 Descending Oakland Center
Sat 11:50:10 AM 38.2278 -121.2289 310° West 315 362 12,000 -1,843 Descending Oakland Center
Sat 11:51:15 AM 38.3000 -121.3333 311° West 286 329 10,000 -1,824 Descending Northern Cal TRACON
Sat 11:52:15 AM 38.3333 -121.4000 303° West 261 300 8,200 -1,850 Descending Northern Cal TRACON
Sat 11:53:15 AM 38.3833 -121.4667 314° West 258 297 6,300 -1,500 Descending Northern Cal TRACON
Sat 11:54:15 AM 38.4333 -121.5333 314° West 245 282 5,200 -1,105 Descending Northern Cal TRACON
Sat 11:55:09 AM 38.4833 -121.5667 332° Northwest 211 243 4,200 -1,105 Descending Northern Cal TRACON
Sat 11:56:09 AM 38.5333 -121.5833 345° North 197 227 3,100 -1,050 Descending Northern Cal TRACON
Sat 11:57:09 AM 38.5833 -121.6000 345° North 171 197 2,100 -850 Descending Northern Cal TRACON
Sat 11:58:09 AM 38.6167 -121.6000 360° North 117 135 1,400 -626 Descending Northern Cal TRACON
Sat 11:59:04 AM 38.6500 -121.6000 360° North 114 131 900 -632 Descending Northern Cal TRACON
Sat 12:00:03 PM 38.6833 -121.6000 360° North 119 137 200 -712 Descending Northern Cal TRACON
Sat 12:02:00 PM 38.6833 -121.5833 46° Northeast  Level FlightAware Approximate
Sat 12:09:00 PM 38.6954 -121.5908 46° Northeast  Level Estimated

Login

Don't have an account? Register now (free) for customized features, flight alerts, and more!